Time;durP1;ratioP1;P1;durP2;ratioP2;P2;SDS_P1;SDS_P2;PMS_P1;PMS_P2;Temp;Humidity;BMP_temperature;BMP_pressure;BME280_temperature;BME280_humidity;BME280_pressure;Samples;Min_cycle;Max_cycle;Signal;HPM_P1;HPM_P2
2023/04/28 00:00:53;;;;;;;9.98;3.65;;;;;;;;;;5010705;28;20133;-71
2023/04/28 00:03:18;;;;;;;9.70;3.60;;;;;;;;;;5010043;28;20030;-75
2023/04/28 00:05:43;;;;;;;9.77;3.80;;;;;;;;;;5011484;28;20455;-73
2023/04/28 00:08:09;;;;;;;16.17;3.92;;;;;;;;;;5012597;28;20030;-74
2023/04/28 00:10:34;;;;;;;9.85;3.60;;;;;;;;;;5017032;28;20018;-74
2023/04/28 00:12:59;;;;;;;11.90;4.22;;;;;;;;;;5011860;28;20092;-76
2023/04/28 00:15:25;;;;;;;11.20;4.20;;;;;;;;;;5011729;28;20022;-71
2023/04/28 00:17:50;;;;;;;14.60;3.95;;;;;;;;;;5010206;28;20021;-74
2023/04/28 00:20:15;;;;;;;16.63;4.45;;;;;;;;;;5011753;28;20083;-77
2023/04/28 00:22:41;;;;;;;11.18;4.68;;;;;;;;;;5011657;28;20079;-74
2023/04/28 00:25:07;;;;;;;12.23;3.67;;;;;;;;;;5015871;28;20033;-75
2023/04/28 00:27:32;;;;;;;11.27;4.38;;;;;;;;;;5019146;28;20127;-71
2023/04/28 00:29:57;;;;;;;8.18;3.65;;;;;;;;;;5011906;28;20048;-74
2023/04/28 00:32:23;;;;;;;12.63;3.97;;;;;;;;;;5011650;28;20027;-74
2023/04/28 00:34:48;;;;;;;11.30;4.47;;;;;;;;;;5011425;28;20583;-75
2023/04/28 00:37:13;;;;;;;9.00;3.88;;;;;;;;;;5009590;28;20438;-74
2023/04/28 00:39:40;;;;;;;11.90;4.80;;;;;;;;;;5011240;28;20498;-74
2023/04/28 00:42:05;;;;;;;9.63;3.90;;;;;;;;;;4998469;28;20026;-74
2023/04/28 00:44:31;;;;;;;12.10;4.10;;;;;;;;;;5010554;28;20029;-71
2023/04/28 00:46:57;;;;;;;7.93;3.95;;;;;;;;;;5010396;28;20447;-73
2023/04/28 00:49:22;;;;;;;9.05;3.80;;;;;;;;;;5012115;28;20026;-74
2023/04/28 00:51:47;;;;;;;13.18;3.90;;;;;;;;;;5011967;28;20387;-74
2023/04/28 00:54:13;;;;;;;13.15;4.68;;;;;;;;;;5015784;28;20506;-74
2023/04/28 00:56:38;;;;;;;9.63;4.28;;;;;;;;;;5013386;28;20025;-72
2023/04/28 00:59:03;;;;;;;8.55;4.38;;;;;;;;;;5017261;28;20029;-72
2023/04/28 01:01:29;;;;;;;9.18;4.57;;;;;;;;;;5009888;28;20026;-70
2023/04/28 01:03:54;;;;;;;10.45;4.75;;;;;;;;;;5008450;28;20026;-74
2023/04/28 01:06:20;;;;;;;12.35;4.47;;;;;;;;;;5010506;28;20033;-71
2023/04/28 01:08:47;;;;;;;10.25;5.15;;;;;;;;;;5017750;28;20223;-73
2023/04/28 01:11:13;;;;;;;11.95;4.80;;;;;;;;;;5011473;28;20359;-72
2023/04/28 01:13:38;;;;;;;11.90;5.03;;;;;;;;;;5010108;28;20022;-75
2023/04/28 01:16:03;;;;;;;11.32;4.97;;;;;;;;;;5010571;28;20014;-73
2023/04/28 01:18:30;;;;;;;14.60;5.22;;;;;;;;;;5011083;28;20056;-73
2023/04/28 01:20:55;;;;;;;11.18;4.95;;;;;;;;;;5010633;28;20622;-73
2023/04/28 01:23:21;;;;;;;8.40;4.53;;;;;;;;;;5010683;28;20034;-72
2023/04/28 01:25:46;;;;;;;14.13;6.00;;;;;;;;;;5015103;28;20068;-73
2023/04/28 01:28:11;;;;;;;10.10;4.47;;;;;;;;;;5015522;28;20022;-73
2023/04/28 01:30:37;;;;;;;16.25;5.30;;;;;;;;;;5005731;28;20100;-75
2023/04/28 01:33:02;;;;;;;11.05;5.00;;;;;;;;;;5002671;28;20108;-70
2023/04/28 01:35:27;;;;;;;9.55;4.47;;;;;;;;;;5010692;28;20018;-73
2023/04/28 01:37:53;;;;;;;14.80;5.60;;;;;;;;;;5010830;28;20528;-73
2023/04/28 01:40:18;;;;;;;12.35;5.10;;;;;;;;;;5009535;28;20253;-74
2023/04/28 01:42:43;;;;;;;9.95;4.55;;;;;;;;;;5010739;28;20376;-73
2023/04/28 01:45:09;;;;;;;12.13;4.38;;;;;;;;;;5010435;28;20029;-71
2023/04/28 01:47:34;;;;;;;13.50;5.22;;;;;;;;;;5010416;28;20014;-73
2023/04/28 01:50:00;;;;;;;9.30;4.53;;;;;;;;;;5010346;28;20332;-73
2023/04/28 01:52:26;;;;;;;12.73;5.55;;;;;;;;;;5005491;28;20423;-74
2023/04/28 01:54:52;;;;;;;9.35;4.80;;;;;;;;;;5008477;28;20209;-75
2023/04/28 01:57:17;;;;;;;12.30;6.35;;;;;;;;;;5010045;28;20169;-74
2023/04/28 01:59:42;;;;;;;12.00;4.90;;;;;;;;;;5009814;28;20133;-74
2023/04/28 02:02:07;;;;;;;10.57;5.15;;;;;;;;;;5010128;28;20104;-68
2023/04/28 02:04:32;;;;;;;12.15;5.60;;;;;;;;;;5009974;28;20108;-72
2023/04/28 02:06:58;;;;;;;11.93;5.40;;;;;;;;;;5010095;28;20022;-71
2023/04/28 02:09:24;;;;;;;12.20;6.03;;;;;;;;;;5019145;28;20057;-74
2023/04/28 02:11:49;;;;;;;11.05;5.65;;;;;;;;;;5011070;28;20036;-73
2023/04/28 02:14:14;;;;;;;11.88;5.70;;;;;;;;;;5009259;28;20030;-74
2023/04/28 02:16:40;;;;;;;12.57;5.78;;;;;;;;;;5010142;28;20456;-70
2023/04/28 02:19:05;;;;;;;15.18;6.20;;;;;;;;;;5010360;28;20387;-74
2023/04/28 02:21:30;;;;;;;14.43;6.15;;;;;;;;;;5010556;28;20037;-69
2023/04/28 02:23:56;;;;;;;12.68;5.55;;;;;;;;;;5007846;28;20026;-73
2023/04/28 02:26:21;;;;;;;11.55;5.43;;;;;;;;;;5019902;28;20140;-73
2023/04/28 02:28:47;;;;;;;20.00;5.88;;;;;;;;;;5010006;28;20029;-72
2023/04/28 02:31:13;;;;;;;16.55;5.90;;;;;;;;;;5009283;28;20037;-73
2023/04/28 02:33:38;;;;;;;17.30;6.38;;;;;;;;;;5008774;28;20026;-73
2023/04/28 02:36:04;;;;;;;15.02;6.45;;;;;;;;;;5009375;28;20015;-73
2023/04/28 02:38:29;;;;;;;11.52;5.93;;;;;;;;;;5008893;28;20087;-68
2023/04/28 02:41:03;;;;;;;11.00;5.55;;;;;;;;;;5009503;28;20101;-73
2023/04/28 02:43:29;;;;;;;11.52;5.05;;;;;;;;;;5008691;28;20099;-73
2023/04/28 02:45:54;;;;;;;11.80;6.03;;;;;;;;;;5008856;28;20435;-73
2023/04/28 02:48:19;;;;;;;15.48;6.57;;;;;;;;;;5009103;28;20048;-72
2023/04/28 02:50:45;;;;;;;11.63;5.93;;;;;;;;;;5008784;28;20101;-74
2023/04/28 02:53:10;;;;;;;11.95;5.68;;;;;;;;;;5007129;28;20093;-71
2023/04/28 02:55:35;;;;;;;11.57;5.60;;;;;;;;;;5008580;28;20021;-72
2023/04/28 02:58:01;;;;;;;15.05;5.72;;;;;;;;;;5008282;28;20026;-74
2023/04/28 03:00:26;;;;;;;13.02;6.32;;;;;;;;;;5003743;28;20117;-70
2023/04/28 03:02:51;;;;;;;16.63;6.35;;;;;;;;;;4990537;28;20029;-74
2023/04/28 03:05:16;;;;;;;20.52;6.97;;;;;;;;;;5004174;28;20101;-72
2023/04/28 03:07:42;;;;;;;14.07;5.75;;;;;;;;;;5004942;28;20317;-73
2023/04/28 03:10:07;;;;;;;17.80;6.30;;;;;;;;;;5016882;28;20018;-70
2023/04/28 03:12:32;;;;;;;11.00;5.82;;;;;;;;;;5008723;28;20118;-73
2023/04/28 03:14:57;;;;;;;13.75;6.07;;;;;;;;;;5008122;28;20483;-73
2023/04/28 03:17:23;;;;;;;15.73;6.30;;;;;;;;;;5008659;28;20025;-73
2023/04/28 03:19:48;;;;;;;16.13;6.07;;;;;;;;;;5008247;28;20104;-69
2023/04/28 03:22:13;;;;;;;14.35;6.35;;;;;;;;;;5008358;28;20064;-74
2023/04/28 03:24:39;;;;;;;15.10;6.85;;;;;;;;;;5006110;28;20026;-71
2023/04/28 03:27:04;;;;;;;14.25;6.68;;;;;;;;;;5020444;28;20022;-73
2023/04/28 03:29:29;;;;;;;14.40;7.22;;;;;;;;;;5003757;28;20030;-73
2023/04/28 03:31:55;;;;;;;16.00;5.97;;;;;;;;;;5004269;28;20384;-70
2023/04/28 03:34:20;;;;;;;13.38;6.03;;;;;;;;;;5008056;28;20137;-75
2023/04/28 03:36:45;;;;;;;20.30;6.63;;;;;;;;;;5011114;28;20787;-69
2023/04/28 03:39:10;;;;;;;13.02;6.57;;;;;;;;;;5018420;28;20033;-75
2023/04/28 03:41:36;;;;;;;10.10;5.45;;;;;;;;;;5006878;28;20037;-72
2023/04/28 03:44:01;;;;;;;11.98;6.55;;;;;;;;;;5007208;28;20048;-74
2023/04/28 03:46:26;;;;;;;17.58;6.80;;;;;;;;;;5007970;28;20432;-73
2023/04/28 03:48:52;;;;;;;14.05;6.22;;;;;;;;;;5003350;28;20030;-74
2023/04/28 03:51:17;;;;;;;13.48;6.70;;;;;;;;;;5001937;28;20026;-78
2023/04/28 03:53:42;;;;;;;13.48;5.95;;;;;;;;;;5007598;28;20018;-73
2023/04/28 03:56:08;;;;;;;13.30;6.32;;;;;;;;;;5008112;28;20032;-74
2023/04/28 03:58:33;;;;;;;14.43;5.70;;;;;;;;;;5008008;28;20021;-70
2023/04/28 04:00:59;;;;;;;14.63;6.47;;;;;;;;;;5007663;28;20678;-74
2023/04/28 04:03:25;;;;;;;15.32;6.70;;;;;;;;;;5002048;28;20109;-72
2023/04/28 04:05:51;;;;;;;13.88;6.15;;;;;;;;;;5007850;28;20026;-74
2023/04/28 04:08:16;;;;;;;13.52;6.57;;;;;;;;;;5010740;28;20038;-71
2023/04/28 04:10:41;;;;;;;15.63;6.38;;;;;;;;;;5013406;28;20018;-71
2023/04/28 04:13:06;;;;;;;20.58;6.85;;;;;;;;;;5008658;28;20037;-72
2023/04/28 04:15:32;;;;;;;20.90;6.80;;;;;;;;;;5004676;28;20026;-72
2023/04/28 04:17:57;;;;;;;11.85;6.60;;;;;;;;;;5008535;28;20057;-73
2023/04/28 04:20:22;;;;;;;15.23;6.32;;;;;;;;;;5007290;28;20472;-69
2023/04/28 04:22:47;;;;;;;14.68;6.60;;;;;;;;;;5007526;28;20472;-72
2023/04/28 04:25:13;;;;;;;14.13;6.13;;;;;;;;;;5005388;28;20453;-70
2023/04/28 04:27:38;;;;;;;15.75;6.18;;;;;;;;;;5016314;28;20372;-71
2023/04/28 04:30:04;;;;;;;11.52;6.13;;;;;;;;;;5008127;28;20399;-70
2023/04/28 04:32:29;;;;;;;15.07;6.22;;;;;;;;;;5008045;28;20036;-74
2023/04/28 04:34:54;;;;;;;12.10;6.35;;;;;;;;;;5007789;28;20018;-74
2023/04/28 04:37:19;;;;;;;10.35;6.07;;;;;;;;;;5009049;28;20418;-73
2023/04/28 04:39:45;;;;;;;16.08;6.40;;;;;;;;;;5009938;28;20021;-69
2023/04/28 04:42:10;;;;;;;12.15;5.65;;;;;;;;;;5010906;28;20022;-74
2023/04/28 04:44:35;;;;;;;21.75;6.35;;;;;;;;;;5011365;28;20033;-72
2023/04/28 04:47:01;;;;;;;13.68;6.93;;;;;;;;;;5011859;28;20018;-74
2023/04/28 04:49:26;;;;;;;17.40;6.80;;;;;;;;;;5012168;28;20036;-72
2023/04/28 04:51:51;;;;;;;18.90;6.40;;;;;;;;;;5012258;28;20101;-70
2023/04/28 04:54:17;;;;;;;22.40;6.20;;;;;;;;;;5010527;28;20046;-72
2023/04/28 04:56:42;;;;;;;20.48;6.75;;;;;;;;;;5011809;28;20028;-74
2023/04/28 04:59:07;;;;;;;26.77;9.57;;;;;;;;;;5011979;28;20136;-74
2023/04/28 05:01:32;;;;;;;18.67;6.97;;;;;;;;;;5011375;28;20033;-73
2023/04/28 05:03:58;;;;;;;20.02;6.10;;;;;;;;;;5010674;28;20025;-74
2023/04/28 05:06:23;;;;;;;14.50;5.93;;;;;;;;;;5010600;28;20487;-73
2023/04/28 05:08:48;;;;;;;26.73;7.05;;;;;;;;;;5018862;28;20041;-74
2023/04/28 05:11:14;;;;;;;13.88;6.20;;;;;;;;;;5015901;28;20030;-73
2023/04/28 05:13:40;;;;;;;35.30;7.50;;;;;;;;;;5010838;28;20038;-70
2023/04/28 05:16:05;;;;;;;24.42;8.02;;;;;;;;;;5010579;28;20076;-74
2023/04/28 05:18:31;;;;;;;30.52;7.53;;;;;;;;;;5010976;28;20596;-71
2023/04/28 05:20:56;;;;;;;62.85;13.63;;;;;;;;;;5011111;28;20479;-74
2023/04/28 05:23:21;;;;;;;38.40;11.23;;;;;;;;;;5010949;28;20526;-75
2023/04/28 05:25:46;;;;;;;31.67;7.32;;;;;;;;;;5010800;28;20024;-73
2023/04/28 05:28:12;;;;;;;54.67;8.82;;;;;;;;;;5023882;28;20037;-73
2023/04/28 05:30:37;;;;;;;25.95;6.75;;;;;;;;;;5013399;28;20046;-76
2023/04/28 05:33:02;;;;;;;17.52;6.47;;;;;;;;;;5011632;28;20096;-73
2023/04/28 05:35:28;;;;;;;32.78;6.75;;;;;;;;;;5009610;28;20414;-74
2023/04/28 05:37:53;;;;;;;40.00;7.38;;;;;;;;;;5012278;28;20034;-72
2023/04/28 05:40:18;;;;;;;16.33;7.43;;;;;;;;;;5012200;28;20029;-72
2023/04/28 05:42:44;;;;;;;16.08;6.90;;;;;;;;;;5011893;28;20030;-74
2023/04/28 05:45:09;;;;;;;17.02;7.38;;;;;;;;;;5012331;28;20482;-70
2023/04/28 05:47:35;;;;;;;29.67;7.93;;;;;;;;;;5012985;28;20014;-72
2023/04/28 05:50:00;;;;;;;22.92;7.45;;;;;;;;;;5013707;28;20368;-73
2023/04/28 05:52:25;;;;;;;25.13;7.80;;;;;;;;;;5011877;28;20080;-73
2023/04/28 05:54:50;;;;;;;19.05;6.32;;;;;;;;;;5009943;28;20034;-72
2023/04/28 05:59:42;;;;;;;18.23;7.05;;;;;;;;;;5029493;28;20526;-64
2023/04/28 06:02:08;;;;;;;23.33;8.20;;;;;;;;;;5031437;28;20025;-64
2023/04/28 06:04:33;;;;;;;29.10;7.32;;;;;;;;;;5031339;28;20094;-66
2023/04/28 06:06:58;;;;;;;17.70;6.65;;;;;;;;;;5031227;28;20018;-64
2023/04/28 06:09:23;;;;;;;30.00;7.85;;;;;;;;;;5006244;28;20050;-65
2023/04/28 06:11:49;;;;;;;29.23;7.38;;;;;;;;;;5024175;28;20025;-62
2023/04/28 06:14:14;;;;;;;10.95;5.70;;;;;;;;;;5008845;28;20053;-64
2023/04/28 06:16:39;;;;;;;28.73;6.40;;;;;;;;;;5024356;28;20531;-64
2023/04/28 06:19:04;;;;;;;25.35;6.47;;;;;;;;;;5024311;28;20022;-65
2023/04/28 06:21:31;;;;;;;33.22;8.27;;;;;;;;;;5018886;28;20033;-63
2023/04/28 06:23:56;;;;;;;16.60;7.10;;;;;;;;;;5031804;28;20029;-61
2023/04/28 06:26:21;;;;;;;17.90;6.35;;;;;;;;;;5005070;28;20028;-64
2023/04/28 06:28:47;;;;;;;24.67;6.97;;;;;;;;;;5018133;28;20037;-64
2023/04/28 06:31:12;;;;;;;14.85;6.40;;;;;;;;;;5011264;28;20029;-64
2023/04/28 06:33:37;;;;;;;10.23;6.13;;;;;;;;;;5022808;28;20024;-64
2023/04/28 06:36:02;;;;;;;19.80;6.65;;;;;;;;;;5011415;28;20510;-65
2023/04/28 06:38:28;;;;;;;38.28;7.68;;;;;;;;;;5000490;28;20477;-62
2023/04/28 06:40:53;;;;;;;21.70;6.30;;;;;;;;;;5018588;28;20492;-65
2023/04/28 06:43:19;;;;;;;19.15;6.97;;;;;;;;;;5013897;28;20104;-63
2023/04/28 06:45:44;;;;;;;14.48;7.10;;;;;;;;;;5010520;28;20029;-64
2023/04/28 06:48:10;;;;;;;26.38;9.55;;;;;;;;;;5023901;28;20112;-64
2023/04/28 06:50:35;;;;;;;20.58;8.00;;;;;;;;;;5010291;28;20088;-62
2023/04/28 06:53:01;;;;;;;31.83;7.35;;;;;;;;;;5023851;28;20042;-66
2023/04/28 06:55:26;;;;;;;15.23;6.60;;;;;;;;;;5010755;28;20475;-65
2023/04/28 06:57:52;;;;;;;20.60;6.65;;;;;;;;;;5011480;28;20105;-65
2023/04/28 07:00:17;;;;;;;26.35;6.80;;;;;;;;;;5010838;28;20038;-63
2023/04/28 07:02:42;;;;;;;13.48;6.72;;;;;;;;;;5013193;28;20025;-66
2023/04/28 07:05:08;;;;;;;14.98;6.60;;;;;;;;;;5029929;28;20097;-65
2023/04/28 07:07:33;;;;;;;21.60;7.65;;;;;;;;;;5014584;28;20025;-64
2023/04/28 07:09:59;;;;;;;17.40;7.53;;;;;;;;;;5003204;28;20026;-64
2023/04/28 07:12:25;;;;;;;14.27;7.10;;;;;;;;;;5011599;28;20152;-63
2023/04/28 07:14:50;;;;;;;18.20;7.50;;;;;;;;;;5016785;28;20105;-65
2023/04/28 07:17:16;;;;;;;11.38;6.60;;;;;;;;;;5012775;28;20472;-65
2023/04/28 07:19:41;;;;;;;35.55;8.38;;;;;;;;;;5020086;28;20391;-66
2023/04/28 07:22:06;;;;;;;16.63;6.85;;;;;;;;;;5025839;28;20030;-62
2023/04/28 07:24:31;;;;;;;25.75;7.20;;;;;;;;;;5026788;28;20029;-63
2023/04/28 07:26:57;;;;;;;19.70;6.85;;;;;;;;;;5011083;28;20111;-64
2023/04/28 07:29:22;;;;;;;19.42;7.47;;;;;;;;;;5008476;28;20045;-64
2023/04/28 07:31:48;;;;;;;23.27;7.50;;;;;;;;;;5012926;28;20030;-64
2023/04/28 07:34:13;;;;;;;16.77;6.95;;;;;;;;;;5032531;28;20010;-66
2023/04/28 07:36:39;;;;;;;25.38;7.22;;;;;;;;;;5028830;28;20033;-65
2023/04/28 07:39:04;;;;;;;16.23;6.63;;;;;;;;;;4998642;28;20095;-65
2023/04/28 07:41:29;;;;;;;12.27;6.38;;;;;;;;;;5025305;28;20028;-66
2023/04/28 07:43:55;;;;;;;58.13;9.65;;;;;;;;;;5020612;28;20603;-63
2023/04/28 07:46:21;;;;;;;20.50;6.28;;;;;;;;;;5024158;28;20037;-65
2023/04/28 07:48:46;;;;;;;15.30;6.72;;;;;;;;;;5021703;28;20025;-66
2023/04/28 07:51:11;;;;;;;14.18;6.45;;;;;;;;;;5010820;28;20124;-66
2023/04/28 07:53:36;;;;;;;19.52;6.28;;;;;;;;;;5022263;28;20044;-63
2023/04/28 07:56:02;;;;;;;28.45;6.53;;;;;;;;;;5024038;28;20026;-64
2023/04/28 07:58:28;;;;;;;15.80;6.35;;;;;;;;;;5029694;28;20126;-65
2023/04/28 08:00:54;;;;;;;43.38;7.55;;;;;;;;;;5024070;28;20483;-64
2023/04/28 08:03:20;;;;;;;25.42;6.55;;;;;;;;;;5022117;28;20032;-65
2023/04/28 08:05:45;;;;;;;23.13;6.00;;;;;;;;;;5009059;28;20030;-64
2023/04/28 08:08:10;;;;;;;12.18;4.80;;;;;;;;;;5027053;28;20479;-66
2023/04/28 08:10:36;;;;;;;11.60;5.30;;;;;;;;;;5023085;28;20060;-63
2023/04/28 08:13:02;;;;;;;22.33;5.75;;;;;;;;;;5020235;28;20653;-63
2023/04/28 08:15:27;;;;;;;20.20;5.53;;;;;;;;;;5018275;28;20105;-66
2023/04/28 08:17:52;;;;;;;10.90;4.40;;;;;;;;;;5020561;28;20072;-66
2023/04/28 08:20:21;;;;;;;14.02;5.28;;;;;;;;;;5019848;28;20113;-65
2023/04/28 08:22:46;;;;;;;31.02;6.70;;;;;;;;;;5031918;28;20021;-64
2023/04/28 08:25:11;;;;;;;13.32;5.07;;;;;;;;;;5019483;28;20018;-63
2023/04/28 08:27:38;;;;;;;14.75;4.78;;;;;;;;;;5010235;28;20042;-66
2023/04/28 08:30:05;;;;;;;11.95;4.53;;;;;;;;;;5006481;28;20026;-64
2023/04/28 08:32:31;;;;;;;15.00;4.50;;;;;;;;;;5012835;28;20532;-64
2023/04/28 08:34:56;;;;;;;21.98;5.40;;;;;;;;;;5012701;28;20097;-65
2023/04/28 08:37:22;;;;;;;13.30;5.80;;;;;;;;;;5005331;28;20487;-65
2023/04/28 08:39:47;;;;;;;14.63;4.68;;;;;;;;;;5004800;28;20475;-62
2023/04/28 08:42:13;;;;;;;25.95;5.10;;;;;;;;;;5020222;28;20018;-64
2023/04/28 08:44:39;;;;;;;14.30;4.88;;;;;;;;;;5016664;28;20064;-65
2023/04/28 08:47:11;;;;;;;12.52;5.18;;;;;;;;;;5018676;28;20041;-62
2023/04/28 08:49:36;;;;;;;18.13;5.75;;;;;;;;;;5031755;28;20422;-64
2023/04/28 08:52:02;;;;;;;13.57;4.18;;;;;;;;;;5032274;28;20022;-64
2023/04/28 08:54:29;;;;;;;26.98;7.22;;;;;;;;;;5030731;28;20045;-65
2023/04/28 08:56:55;;;;;;;15.02;5.60;;;;;;;;;;5020802;28;20071;-62
2023/04/28 08:59:21;;;;;;;15.60;5.03;;;;;;;;;;5028959;28;20180;-65
2023/04/28 09:01:49;;;;;;;14.07;5.25;;;;;;;;;;5020863;28;20471;-63
2023/04/28 09:04:18;;;;;;;11.88;5.07;;;;;;;;;;5030257;28;20021;-62
2023/04/28 09:06:44;;;;;;;12.88;5.10;;;;;;;;;;5012387;28;20025;-61
2023/04/28 09:09:27;;;;;;;17.13;5.30;;;;;;;;;;5006371;28;20158;-63
2023/04/28 09:11:58;;;;;;;13.15;5.63;;;;;;;;;;5021413;28;20017;-64
2023/04/28 09:14:23;;;;;;;13.30;5.38;;;;;;;;;;5040456;28;20101;-66
2023/04/28 09:16:49;;;;;;;14.43;6.43;;;;;;;;;;5024209;28;20570;-64
2023/04/28 09:19:16;;;;;;;13.27;6.22;;;;;;;;;;5032145;28;20028;-66
2023/04/28 09:21:48;;;;;;;12.80;5.72;;;;;;;;;;5020328;28;20026;-64
2023/04/28 09:24:31;;;;;;;15.30;6.20;;;;;;;;;;5026663;28;20103;-64
2023/04/28 09:27:01;;;;;;;16.20;5.53;;;;;;;;;;5009127;28;20045;-65
2023/04/28 09:29:26;;;;;;;14.02;6.40;;;;;;;;;;5007429;28;20490;-65
2023/04/28 09:31:52;;;;;;;11.63;5.55;;;;;;;;;;5009897;28;20026;-64
2023/04/28 09:34:18;;;;;;;12.35;6.07;;;;;;;;;;5019334;28;20525;-65
2023/04/28 09:36:43;;;;;;;17.17;6.28;;;;;;;;;;5029105;28;20017;-66
2023/04/28 09:39:08;;;;;;;13.15;5.57;;;;;;;;;;5017727;28;20029;-65
2023/04/28 09:41:35;;;;;;;11.25;5.90;;;;;;;;;;5027434;28;20032;-65
2023/04/28 09:44:10;;;;;;;14.05;6.07;;;;;;;;;;5022545;28;20014;-66
2023/04/28 09:46:35;;;;;;;15.23;5.43;;;;;;;;;;5015162;28;20060;-65
2023/04/28 09:49:01;;;;;;;11.63;6.13;;;;;;;;;;5020359;28;20057;-64
2023/04/28 09:51:27;;;;;;;19.50;6.45;;;;;;;;;;5008456;28;20025;-63
2023/04/28 09:53:52;;;;;;;16.05;6.10;;;;;;;;;;5021301;28;20024;-61
2023/04/28 09:56:20;;;;;;;16.20;6.47;;;;;;;;;;5027976;28;20021;-66
2023/04/28 09:58:46;;;;;;;13.10;6.30;;;;;;;;;;5020676;28;20507;-66
2023/04/28 10:01:12;;;;;;;17.10;7.03;;;;;;;;;;5028953;28;20039;-64
2023/04/28 10:03:38;;;;;;;14.60;6.60;;;;;;;;;;5019378;28;20029;-66
2023/04/28 10:06:04;;;;;;;16.10;7.07;;;;;;;;;;5030859;28;20120;-66
2023/04/28 10:08:29;;;;;;;13.98;5.88;;;;;;;;;;5016283;28;20081;-66
2023/04/28 10:10:55;;;;;;;14.93;7.38;;;;;;;;;;5022559;28;20026;-65
2023/04/28 10:13:22;;;;;;;15.52;5.85;;;;;;;;;;5011901;28;20028;-65
2023/04/28 10:15:47;;;;;;;15.40;5.80;;;;;;;;;;5014195;28;20021;-65
2023/04/28 10:18:16;;;;;;;14.00;6.28;;;;;;;;;;5013487;28;20476;-65
2023/04/28 10:20:48;;;;;;;18.60;6.97;;;;;;;;;;5024658;28;20022;-66
2023/04/28 10:23:32;;;;;;;13.00;6.85;;;;;;;;;;5009058;28;20022;-63
2023/04/28 10:25:58;;;;;;;15.85;6.00;;;;;;;;;;5006871;28;20474;-64
2023/04/28 10:28:25;;;;;;;13.57;6.82;;;;;;;;;;5001108;28;20098;-65
2023/04/28 10:31:12;;;;;;;14.98;6.68;;;;;;;;;;5023504;28;20021;-64
2023/04/28 10:33:38;;;;;;;15.45;6.82;;;;;;;;;;5010172;28;20436;-65
2023/04/28 10:36:05;;;;;;;15.07;6.97;;;;;;;;;;5009044;28;20161;-65
2023/04/28 10:38:30;;;;;;;13.25;6.43;;;;;;;;;;5003221;28;20014;-65
2023/04/28 10:41:01;;;;;;;13.70;6.75;;;;;;;;;;5009343;28;20025;-62
2023/04/28 10:43:27;;;;;;;15.68;6.05;;;;;;;;;;5023774;28;20048;-65
2023/04/28 10:45:52;;;;;;;13.65;7.35;;;;;;;;;;5010311;28;20073;-64
2023/04/28 10:48:33;;;;;;;18.40;6.90;;;;;;;;;;5023668;28;20392;-65
2023/04/28 10:53:41;;;;;;;14.65;7.40;;;;;;;;;;5026419;28;20032;-63
2023/04/28 10:56:06;;;;;;;22.05;7.00;;;;;;;;;;5028443;28;20598;-65
2023/04/28 10:58:32;;;;;;;14.05;6.63;;;;;;;;;;5009602;28;20037;-64
2023/04/28 11:01:17;;;;;;;12.48;6.70;;;;;;;;;;5009965;28;20021;-65
2023/04/28 11:03:42;;;;;;;13.57;6.22;;;;;;;;;;5019499;28;20021;-65
2023/04/28 11:06:24;;;;;;;16.63;7.03;;;;;;;;;;5026544;28;20022;-65
2023/04/28 11:08:50;;;;;;;14.80;6.70;;;;;;;;;;5003045;28;20022;-64
2023/04/28 11:11:16;;;;;;;16.02;6.78;;;;;;;;;;5014758;28;20025;-62
2023/04/28 11:13:42;;;;;;;12.63;5.57;;;;;;;;;;5017639;28;20100;-65
2023/04/28 11:16:07;;;;;;;12.05;6.72;;;;;;;;;;5015488;28;20092;-63
2023/04/28 11:18:51;;;;;;;13.30;6.35;;;;;;;;;;5017687;28;20026;-62
2023/04/28 11:21:20;;;;;;;11.50;5.65;;;;;;;;;;5005789;28;20100;-64
2023/04/28 11:23:45;;;;;;;13.55;5.68;;;;;;;;;;5013019;28;20022;-66
2023/04/28 11:26:10;;;;;;;12.20;5.47;;;;;;;;;;5009756;28;20400;-66
2023/04/28 11:28:45;;;;;;;12.43;6.18;;;;;;;;;;5001583;28;20038;-68
2023/04/28 11:31:11;;;;;;;12.43;5.32;;;;;;;;;;5019598;28;20029;-63
2023/04/28 11:33:37;;;;;;;12.48;6.18;;;;;;;;;;5015107;28;20022;-64
2023/04/28 11:36:02;;;;;;;9.85;5.63;;;;;;;;;;5017643;28;20028;-65
2023/04/28 11:38:27;;;;;;;11.48;5.13;;;;;;;;;;5026454;28;20022;-64
2023/04/28 11:40:57;;;;;;;14.32;6.07;;;;;;;;;;5000974;28;20364;-63
2023/04/28 11:43:28;;;;;;;13.55;5.80;;;;;;;;;;5018210;28;20026;-64
2023/04/28 11:45:54;;;;;;;15.23;5.78;;;;;;;;;;5021411;28;20550;-65
2023/04/28 11:48:20;;;;;;;10.02;5.28;;;;;;;;;;5023988;28;20137;-65
2023/04/28 11:50:46;;;;;;;16.63;5.82;;;;;;;;;;5023626;28;20036;-66
2023/04/28 11:53:11;;;;;;;15.32;6.57;;;;;;;;;;5011613;28;20089;-64
2023/04/28 11:55:36;;;;;;;10.38;5.20;;;;;;;;;;5028529;28;20133;-66
2023/04/28 11:58:22;;;;;;;11.90;5.13;;;;;;;;;;5036989;22;21179;-72
2023/04/28 12:01:07;;;;;;;14.85;6.15;;;;;;;;;;5007295;28;20018;-72
2023/04/28 12:03:32;;;;;;;15.15;6.28;;;;;;;;;;5008643;28;20131;-71
2023/04/28 12:05:57;;;;;;;15.88;5.55;;;;;;;;;;4992947;28;20481;-70
2023/04/28 12:08:27;;;;;;;11.95;6.13;;;;;;;;;;4988388;28;20146;-71
2023/04/28 12:11:14;;;;;;;15.68;5.22;;;;;;;;;;4958059;28;20113;-71
2023/04/28 12:13:39;;;;;;;11.98;5.60;;;;;;;;;;4980202;28;20019;-67
2023/04/28 12:16:06;;;;;;;14.52;5.68;;;;;;;;;;4964700;28;20528;-70
2023/04/28 12:18:32;;;;;;;11.38;5.78;;;;;;;;;;4970018;28;20023;-70
2023/04/28 12:20:57;;;;;;;11.15;5.47;;;;;;;;;;4968754;28;20080;-70
2023/04/28 12:23:32;;;;;;;8.93;5.18;;;;;;;;;;4980025;28;20022;-71
2023/04/28 12:25:58;;;;;;;13.52;5.65;;;;;;;;;;4976901;28;20027;-70
2023/04/28 12:28:26;;;;;;;14.52;6.05;;;;;;;;;;4978158;28;20504;-71
2023/04/28 12:31:02;;;;;;;9.27;4.43;;;;;;;;;;4980925;28;20030;-70
2023/04/28 12:33:28;;;;;;;14.68;5.60;;;;;;;;;;4970571;28;20053;-70
2023/04/28 12:35:55;;;;;;;11.82;4.93;;;;;;;;;;4969899;28;20019;-69
2023/04/28 12:38:20;;;;;;;15.88;5.25;;;;;;;;;;4984968;28;20049;-70
2023/04/28 12:40:46;;;;;;;8.73;5.20;;;;;;;;;;4977483;28;20134;-69
2023/04/28 12:43:11;;;;;;;11.20;5.32;;;;;;;;;;4984500;28;20034;-69
2023/04/28 12:45:36;;;;;;;13.85;5.28;;;;;;;;;;4969625;28;20030;-70
2023/04/28 12:48:02;;;;;;;11.43;4.30;;;;;;;;;;4974933;28;20049;-70
2023/04/28 12:50:31;;;;;;;10.75;4.93;;;;;;;;;;4977453;28;20019;-69
2023/04/28 12:52:56;;;;;;;12.23;5.88;;;;;;;;;;4969890;28;20022;-70
2023/04/28 12:55:22;;;;;;;12.18;4.72;;;;;;;;;;4972390;28;20397;-70
2023/04/28 12:57:47;;;;;;;15.18;5.50;;;;;;;;;;4970463;28;20023;-68
2023/04/28 13:00:15;;;;;;;14.88;5.50;;;;;;;;;;4971224;28;20062;-70
2023/04/28 13:02:40;;;;;;;19.58;4.82;;;;;;;;;;4973927;28;20081;-70
2023/04/28 13:05:06;;;;;;;11.82;5.07;;;;;;;;;;4979908;28;20038;-70
2023/04/28 13:07:32;;;;;;;12.10;4.97;;;;;;;;;;4969925;28;20030;-70
2023/04/28 13:09:58;;;;;;;10.45;5.30;;;;;;;;;;4981827;28;20361;-70
2023/04/28 13:12:23;;;;;;;12.95;5.13;;;;;;;;;;4973448;28;20027;-71
2023/04/28 13:14:48;;;;;;;10.18;4.82;;;;;;;;;;4970906;28;20034;-71
2023/04/28 13:17:14;;;;;;;14.90;5.53;;;;;;;;;;4968219;28;20413;-68
2023/04/28 13:19:39;;;;;;;12.68;5.30;;;;;;;;;;4976072;28;20782;-70
2023/04/28 13:22:05;;;;;;;10.65;5.18;;;;;;;;;;4981026;28;20029;-72
2023/04/28 13:24:32;;;;;;;12.70;5.22;;;;;;;;;;4972796;28;20023;-69
2023/04/28 13:26:57;;;;;;;9.38;5.40;;;;;;;;;;4978351;28;20035;-70
2023/04/28 13:29:22;;;;;;;14.35;5.63;;;;;;;;;;4984620;28;20034;-70
2023/04/28 13:31:48;;;;;;;14.07;4.90;;;;;;;;;;4973797;28;20037;-70
2023/04/28 13:34:17;;;;;;;11.60;5.65;;;;;;;;;;4983712;28;20101;-70
2023/04/28 13:36:43;;;;;;;15.07;5.40;;;;;;;;;;4976471;28;20022;-70
2023/04/28 13:39:13;;;;;;;19.38;5.28;;;;;;;;;;4981452;28;20023;-70
2023/04/28 13:41:38;;;;;;;13.32;5.25;;;;;;;;;;4977434;28;20060;-70
2023/04/28 13:44:03;;;;;;;18.13;5.40;;;;;;;;;;4985330;28;20105;-69
2023/04/28 13:46:29;;;;;;;10.07;5.32;;;;;;;;;;4971987;28;20023;-68
2023/04/28 13:48:54;;;;;;;13.18;5.32;;;;;;;;;;4972493;28;20111;-68
2023/04/28 13:51:20;;;;;;;8.63;4.68;;;;;;;;;;4978006;28;20026;-68
2023/04/28 13:53:45;;;;;;;9.82;5.63;;;;;;;;;;4979231;28;20564;-70
2023/04/28 13:56:11;;;;;;;12.63;4.88;;;;;;;;;;4984745;28;20015;-69
2023/04/28 13:58:36;;;;;;;15.30;4.57;;;;;;;;;;4971997;28;20026;-70
2023/04/28 14:01:03;;;;;;;10.02;4.30;;;;;;;;;;4968061;28;20031;-69
2023/04/28 14:03:28;;;;;;;14.68;4.72;;;;;;;;;;4971226;28;20031;-72
2023/04/28 14:05:54;;;;;;;11.70;4.20;;;;;;;;;;4970430;28;20583;-70
2023/04/28 14:08:20;;;;;;;10.27;4.40;;;;;;;;;;4975976;28;20026;-70
2023/04/28 14:10:46;;;;;;;10.10;4.28;;;;;;;;;;4980884;28;20022;-69
2023/04/28 14:13:11;;;;;;;11.20;4.60;;;;;;;;;;4978474;28;20018;-68
2023/04/28 14:15:36;;;;;;;10.35;5.18;;;;;;;;;;4977241;28;20105;-71
2023/04/28 14:18:02;;;;;;;9.13;4.07;;;;;;;;;;4983968;28;20034;-71
2023/04/28 14:20:27;;;;;;;10.30;4.13;;;;;;;;;;4971674;28;20445;-69
2023/04/28 14:22:53;;;;;;;8.13;3.60;;;;;;;;;;4984662;28;20376;-69
2023/04/28 14:25:18;;;;;;;7.93;3.95;;;;;;;;;;4972801;28;20453;-70
2023/04/28 14:27:43;;;;;;;8.73;3.95;;;;;;;;;;4989355;28;20033;-72
2023/04/28 14:30:09;;;;;;;10.82;4.13;;;;;;;;;;4979261;28;20026;-70